createdAt,value
2019-04-10T00:01:07.473Z,11.57
2019-04-10T00:03:37.814Z,10.83
2019-04-10T00:06:04.920Z,12.20
2019-04-10T00:08:34.417Z,11.30
2019-04-10T00:11:03.233Z,16.90
2019-04-10T00:13:31.775Z,9.33
2019-04-10T00:16:00.416Z,12.80
2019-04-10T00:18:29.750Z,14.93
2019-04-10T00:20:58.810Z,11.07
2019-04-10T00:23:27.354Z,12.90
2019-04-10T00:25:55.844Z,13.17
2019-04-10T00:28:25.447Z,11.90
2019-04-10T00:30:54.138Z,11.67
2019-04-10T00:33:22.980Z,10.37
2019-04-10T00:35:51.974Z,12.33
2019-04-10T00:38:20.569Z,12.70
2019-04-10T00:40:49.937Z,12.60
2019-04-10T00:43:19.044Z,11.03
2019-04-10T00:45:47.865Z,9.50
2019-04-10T00:48:17.490Z,11.53
2019-04-10T00:50:46.596Z,12.07
2019-04-10T00:53:15.283Z,11.30
2019-04-10T00:55:44.058Z,10.47
2019-04-10T00:58:12.700Z,12.00
2019-04-10T01:00:41.281Z,11.23
2019-04-10T01:03:11.390Z,11.93
2019-04-10T01:05:39.991Z,11.93
2019-04-10T01:08:08.732Z,11.80
2019-04-10T01:10:37.485Z,13.27
2019-04-10T01:13:06.040Z,10.30
2019-04-10T01:15:34.761Z,11.97
2019-04-10T01:18:04.548Z,10.60
2019-04-10T01:20:33.420Z,10.83
2019-04-10T01:23:02.050Z,16.03
2019-04-10T01:25:30.626Z,11.13
2019-04-10T01:28:00.453Z,14.30
2019-04-10T01:30:29.300Z,11.60
2019-04-10T01:32:58.540Z,11.50
2019-04-10T01:35:30.208Z,9.73
2019-04-10T01:38:02.409Z,12.70
2019-04-10T01:40:29.260Z,12.93
2019-04-10T01:43:08.228Z,14.65
2019-04-10T01:45:29.280Z,12.47
2019-04-10T01:47:57.861Z,12.30
2019-04-10T01:50:26.430Z,14.70
2019-04-10T01:52:55.538Z,11.33
2019-04-10T01:55:27.206Z,13.45
2019-04-10T01:57:55.018Z,15.50
2019-04-10T02:00:25.747Z,12.85
2019-04-10T02:02:54.353Z,15.28
2019-04-10T02:05:22.974Z,18.70
2019-04-10T02:08:01.161Z,16.62
2019-04-10T02:10:21.759Z,16.05
2019-04-10T02:12:51.445Z,11.63
2019-04-10T02:15:21.751Z,16.90
2019-04-10T02:17:51.445Z,44.55
2019-04-10T02:20:21.021Z,23.03
2019-04-10T02:22:49.922Z,26.13
2019-04-10T02:25:18.517Z,28.23
2019-04-10T02:27:47.107Z,25.08
2019-04-10T02:30:18.869Z,17.45
2019-04-10T02:32:48.209Z,23.22
2019-04-10T02:35:17.686Z,21.62
2019-04-10T02:37:52.167Z,15.78
2019-04-10T02:40:17.235Z,18.02
2019-04-10T02:42:47.331Z,14.38
2019-04-10T02:45:17.139Z,17.65
2019-04-10T02:47:47.458Z,15.70
2019-04-10T02:50:16.687Z,17.80
2019-04-10T02:52:46.000Z,14.23
2019-04-10T02:55:16.824Z,20.02
2019-04-10T02:57:46.054Z,13.62
2019-04-10T03:00:15.721Z,19.12
2019-04-10T03:02:45.332Z,15.80
2019-04-10T03:05:15.873Z,18.77
2019-04-10T03:07:44.436Z,18.80
2019-04-10T03:10:24.657Z,17.05
2019-04-10T03:12:44.350Z,17.35
2019-04-10T03:15:15.037Z,21.07
2019-04-10T03:17:44.140Z,18.05
2019-04-10T03:20:14.057Z,19.90
2019-04-10T03:22:43.034Z,20.80
2019-04-10T03:25:12.868Z,20.10
2019-04-10T03:27:42.440Z,16.87
2019-04-10T03:30:13.301Z,17.50
2019-04-10T03:32:48.521Z,23.27
2019-04-10T03:35:34.638Z,21.48
2019-04-10T03:38:03.356Z,19.17
2019-04-10T03:40:33.515Z,17.35
2019-04-10T03:43:02.087Z,17.30
2019-04-10T03:45:30.754Z,21.90
2019-04-10T03:48:00.069Z,19.30
2019-04-10T03:50:28.579Z,16.52
2019-04-10T03:52:57.932Z,20.82
2019-04-10T03:55:27.109Z,18.40
2019-04-10T03:57:55.741Z,22.85
2019-04-10T04:00:24.397Z,20.37
2019-04-10T04:02:53.852Z,25.45
2019-04-10T04:05:22.518Z,19.35
2019-04-10T04:07:51.274Z,22.15
2019-04-10T04:10:20.498Z,20.77
2019-04-10T04:12:49.146Z,27.02
2019-04-10T04:15:17.811Z,19.10
2019-04-10T04:17:46.556Z,24.60
2019-04-10T04:20:15.103Z,22.15
2019-04-10T04:22:43.715Z,21.25
2019-04-10T04:25:12.863Z,20.02
2019-04-10T04:27:41.992Z,27.40
2019-04-10T04:30:12.613Z,24.92
2019-04-10T04:32:42.071Z,20.90
2019-04-10T04:35:11.231Z,20.72
2019-04-10T04:37:40.151Z,27.98
2019-04-10T04:40:09.057Z,22.50
2019-04-10T04:42:38.541Z,26.70
2019-04-10T04:45:08.579Z,22.20
2019-04-10T04:47:37.404Z,24.75
2019-04-10T04:50:07.614Z,20.45
2019-04-10T04:52:37.011Z,24.27
2019-04-10T04:55:10.066Z,19.55
2019-04-10T04:57:39.705Z,22.50
2019-04-10T05:00:09.524Z,20.82
2019-04-10T05:02:39.137Z,28.32
2019-04-10T05:05:10.841Z,19.85
2019-04-10T05:07:39.757Z,18.40
2019-04-10T05:10:09.117Z,23.60
2019-04-10T05:12:38.080Z,21.00
2019-04-10T05:15:09.428Z,19.98
2019-04-10T05:17:39.311Z,19.32
2019-04-10T05:20:09.146Z,25.32
2019-04-10T05:22:37.763Z,45.93
2019-04-10T05:25:06.930Z,19.40
2019-04-10T05:27:35.667Z,32.27
2019-04-10T05:30:06.311Z,26.15
2019-04-10T05:32:35.389Z,23.20
2019-04-10T05:35:08.381Z,33.70
2019-04-10T05:37:36.404Z,22.30
2019-04-10T05:40:07.690Z,22.93
2019-04-10T05:42:37.296Z,19.50
2019-04-10T05:45:07.221Z,22.27
2019-04-10T05:47:36.639Z,21.37
2019-04-10T05:50:06.728Z,27.40
2019-04-10T05:52:35.392Z,21.53
2019-04-10T05:55:04.722Z,22.00
2019-04-10T05:57:33.439Z,17.97
2019-04-10T06:00:02.739Z,23.97
2019-04-10T06:02:32.116Z,27.83
2019-04-10T06:05:00.831Z,17.33
2019-04-10T06:07:29.463Z,15.17
2019-04-10T06:10:02.042Z,17.47
2019-04-10T06:12:28.577Z,15.93
2019-04-10T06:14:57.241Z,24.40
2019-04-10T06:17:26.744Z,19.57
2019-04-10T06:19:56.507Z,20.37
2019-04-10T06:22:26.319Z,19.83
2019-04-10T06:24:55.022Z,15.43
2019-04-10T06:27:24.219Z,20.17
2019-04-10T06:29:53.155Z,21.00
2019-04-10T06:32:21.784Z,17.13
2019-04-10T06:34:50.484Z,20.23
2019-04-10T06:37:19.024Z,26.63
2019-04-10T06:39:47.605Z,17.90
2019-04-10T06:42:16.385Z,19.83
2019-04-10T06:44:46.016Z,16.40
2019-04-10T06:47:14.636Z,12.27
2019-04-10T06:49:43.191Z,19.27
2019-04-10T06:52:11.747Z,19.97
2019-04-10T06:54:40.670Z,21.87
2019-04-10T06:57:10.382Z,15.70
2019-04-10T06:59:39.877Z,20.13
2019-04-10T07:02:18.498Z,18.40
2019-04-10T07:04:45.977Z,21.10
2019-04-10T07:07:12.416Z,20.83
2019-04-10T07:09:40.053Z,13.03
2019-04-10T07:12:08.738Z,14.53
2019-04-10T07:14:38.421Z,18.03
2019-04-10T07:17:08.882Z,16.90
2019-04-10T07:19:37.606Z,15.87
2019-04-10T07:22:11.164Z,16.00
2019-04-10T07:24:39.589Z,21.13
2019-04-10T07:27:07.719Z,20.17
2019-04-10T07:29:36.437Z,18.43
2019-04-10T07:32:08.625Z,20.50
2019-04-10T07:34:36.227Z,15.33
2019-04-10T07:37:05.755Z,22.27
2019-04-10T07:39:35.119Z,15.20
2019-04-10T07:42:04.166Z,12.03
2019-04-10T07:44:32.758Z,16.70
2019-04-10T07:47:02.595Z,14.10
2019-04-10T07:49:31.841Z,17.57
2019-04-10T07:52:02.513Z,17.70
2019-04-10T07:54:32.927Z,18.03
2019-04-10T07:57:02.074Z,15.17
2019-04-10T07:59:31.279Z,11.63
2019-04-10T08:02:00.097Z,15.70
2019-04-10T08:04:29.050Z,15.00
2019-04-10T08:06:58.741Z,8.93
2019-04-10T08:09:27.336Z,16.13
2019-04-10T08:11:56.724Z,12.70
2019-04-10T08:14:25.443Z,16.93
2019-04-10T08:16:54.037Z,16.27
2019-04-10T08:19:25.273Z,16.60
2019-04-10T08:21:54.823Z,13.97
2019-04-10T08:24:23.778Z,12.03
2019-04-10T08:26:52.749Z,16.17
2019-04-10T08:29:21.820Z,11.27
2019-04-10T08:31:50.468Z,12.47
2019-04-10T08:34:19.506Z,12.67
2019-04-10T08:36:48.160Z,16.90
2019-04-10T08:39:28.532Z,12.60
2019-04-10T08:41:48.020Z,16.13
2019-04-10T08:44:17.680Z,12.37
2019-04-10T08:46:46.409Z,19.23
2019-04-10T08:49:15.000Z,11.40
2019-04-10T08:51:43.726Z,10.60
2019-04-10T08:54:12.332Z,11.53
2019-04-10T08:56:41.028Z,8.40
2019-04-10T08:59:09.705Z,14.90
2019-04-10T09:01:38.246Z,17.90
2019-04-10T09:04:07.685Z,13.77
2019-04-10T09:06:36.419Z,11.77
2019-04-10T09:09:07.628Z,12.27
2019-04-10T09:11:37.490Z,17.27
2019-04-10T09:14:06.215Z,15.50
2019-04-10T09:16:34.703Z,17.17
2019-04-10T09:19:05.555Z,13.20
2019-04-10T09:21:34.656Z,14.10
2019-04-10T09:24:03.249Z,9.87
2019-04-10T09:26:32.754Z,10.43
2019-04-10T09:29:02.467Z,10.00
2019-04-10T09:31:31.559Z,13.63
2019-04-10T09:34:01.179Z,10.73
2019-04-10T09:36:29.889Z,14.77
2019-04-10T09:38:59.098Z,13.10
2019-04-10T09:41:28.032Z,10.30
2019-04-10T09:43:56.705Z,13.93
2019-04-10T09:46:25.241Z,10.80
2019-04-10T09:48:53.726Z,10.90
2019-04-10T09:51:23.465Z,12.53
2019-04-10T09:53:53.149Z,14.47
2019-04-10T09:56:21.765Z,13.27
2019-04-10T09:58:50.303Z,11.57
2019-04-10T10:01:19.870Z,13.13
2019-04-10T10:03:48.744Z,9.67
2019-04-10T10:06:27.381Z,13.80
2019-04-10T10:08:47.970Z,9.63
2019-04-10T10:11:16.717Z,8.47
2019-04-10T10:13:45.855Z,16.10
2019-04-10T10:16:14.820Z,7.83
2019-04-10T10:18:43.698Z,10.40
2019-04-10T10:21:12.442Z,8.20
2019-04-10T10:23:43.002Z,9.33
2019-04-10T10:26:12.049Z,6.60
2019-04-10T10:28:40.659Z,9.17
2019-04-10T10:31:09.241Z,12.83
2019-04-10T10:33:37.813Z,11.70
2019-04-10T10:36:07.406Z,11.53
2019-04-10T10:38:36.999Z,8.87
2019-04-10T10:41:06.652Z,8.13
2019-04-10T10:43:36.278Z,8.60
2019-04-10T10:46:05.125Z,8.70
2019-04-10T10:48:33.768Z,8.30
2019-04-10T10:51:02.470Z,14.60
2019-04-10T10:53:31.084Z,7.40
2019-04-10T10:56:00.067Z,10.60
2019-04-10T10:58:28.762Z,8.00
2019-04-10T11:00:57.751Z,10.43
2019-04-10T11:03:26.521Z,9.80
2019-04-10T11:05:55.092Z,11.67
2019-04-10T11:08:25.211Z,11.03
2019-04-10T11:10:57.881Z,10.40
2019-04-10T11:13:26.805Z,8.97
2019-04-10T11:15:56.244Z,9.47
2019-04-10T11:18:26.862Z,11.50
2019-04-10T11:21:00.943Z,10.20
2019-04-10T11:23:26.366Z,9.97
2019-04-10T11:25:55.874Z,15.30
2019-04-10T11:28:30.108Z,10.67
2019-04-10T11:30:58.608Z,12.90
2019-04-10T11:33:27.532Z,11.90
2019-04-10T11:35:56.193Z,11.23
2019-04-10T11:38:25.881Z,8.80
2019-04-10T11:40:57.734Z,13.60
2019-04-10T11:43:26.131Z,12.20
2019-04-10T11:45:58.197Z,11.20
2019-04-10T11:48:28.486Z,11.80
2019-04-10T11:53:27.160Z,10.20
2019-04-10T11:55:56.993Z,13.47
2019-04-10T11:58:28.857Z,11.70
2019-04-10T12:00:59.202Z,10.10
2019-04-10T12:03:27.214Z,12.70
2019-04-10T12:05:57.728Z,9.00
2019-04-10T12:08:50.055Z,10.50
2019-04-10T12:13:26.895Z,9.37
2019-04-10T12:15:56.621Z,12.10
2019-04-10T12:18:25.242Z,10.40
2019-04-10T12:20:53.873Z,8.70
2019-04-10T12:23:23.102Z,11.50
2019-04-10T12:25:52.157Z,13.07
2019-04-10T12:28:22.110Z,10.10
2019-04-10T12:30:51.304Z,9.00
2019-04-10T12:33:21.203Z,12.30
2019-04-10T12:35:50.022Z,12.43
2019-04-10T12:38:19.323Z,13.43
2019-04-10T12:40:51.065Z,9.47
2019-04-10T12:43:19.661Z,9.70
2019-04-10T12:45:48.674Z,13.63
2019-04-10T12:48:17.391Z,16.67
2019-04-10T12:50:47.512Z,11.90
2019-04-10T12:53:16.133Z,16.27
2019-04-10T12:55:45.803Z,9.67
2019-04-10T12:58:17.560Z,11.17
2019-04-10T13:00:44.975Z,10.60
2019-04-10T13:03:14.527Z,12.30
2019-04-10T13:05:43.163Z,9.67
2019-04-10T13:08:20.644Z,17.73
2019-04-10T13:10:43.564Z,11.77
2019-04-10T13:13:13.547Z,9.90
2019-04-10T13:15:43.450Z,14.03
2019-04-10T13:18:14.312Z,13.93
2019-04-10T13:20:42.464Z,10.00
2019-04-10T13:23:13.558Z,13.67
2019-04-10T13:25:41.324Z,13.83
2019-04-10T13:28:09.923Z,10.20
2019-04-10T13:30:46.517Z,10.77
2019-04-10T13:33:08.829Z,12.87
2019-04-10T13:35:37.890Z,10.57
2019-04-10T13:38:06.807Z,8.30
2019-04-10T13:40:35.408Z,11.77
2019-04-10T13:43:04.080Z,11.17
2019-04-10T13:45:35.286Z,9.40
2019-04-10T13:48:04.104Z,13.30
2019-04-10T13:50:32.774Z,10.60
2019-04-10T13:53:01.724Z,15.20
2019-04-10T13:55:30.516Z,10.87
2019-04-10T13:58:00.012Z,17.20
2019-04-10T14:00:39.543Z,16.27
2019-04-10T14:03:06.911Z,8.80
2019-04-10T14:05:35.482Z,10.10
2019-04-10T14:08:04.773Z,10.60
2019-04-10T14:10:33.445Z,12.20
2019-04-10T14:13:03.124Z,13.90
2019-04-10T14:15:35.908Z,11.73
2019-04-10T14:18:04.793Z,10.60
2019-04-10T14:20:35.493Z,9.00
2019-04-10T14:23:06.365Z,20.67
2019-04-10T14:25:42.512Z,12.43
2019-04-10T14:28:11.174Z,8.90
2019-04-10T14:30:41.380Z,16.87
2019-04-10T14:33:10.588Z,9.50
2019-04-10T14:35:39.228Z,11.53
2019-04-10T14:38:08.572Z,10.30
2019-04-10T14:40:37.984Z,9.50
2019-04-10T14:43:07.344Z,18.27
2019-04-10T14:45:37.394Z,7.50
2019-04-10T14:48:06.004Z,10.63
2019-04-10T14:50:34.757Z,10.50
2019-04-10T14:53:03.660Z,7.93
2019-04-10T14:55:32.211Z,10.80
2019-04-10T14:58:01.357Z,10.73
2019-04-10T15:00:32.786Z,7.70
2019-04-10T15:03:02.251Z,10.87
2019-04-10T15:05:32.102Z,15.87
2019-04-10T15:08:01.680Z,7.57
2019-04-10T15:10:34.610Z,9.93
2019-04-10T15:13:09.910Z,9.33
2019-04-10T15:15:34.478Z,10.43
2019-04-10T15:18:04.514Z,12.00
2019-04-10T15:20:33.498Z,16.70
2019-04-10T15:23:02.899Z,9.87
2019-04-10T15:25:31.823Z,9.13
2019-04-10T15:30:51.058Z,11.73
2019-04-10T15:33:20.556Z,10.00
2019-04-10T15:35:51.231Z,10.53
2019-04-10T15:38:20.055Z,9.73
2019-04-10T15:40:48.729Z,18.83
2019-04-10T15:43:17.323Z,7.70
2019-04-10T15:45:46.340Z,8.97
2019-04-10T15:48:15.287Z,9.00
2019-04-10T15:50:44.019Z,9.90
2019-04-10T15:53:12.900Z,11.30
2019-04-10T15:55:41.669Z,6.90
2019-04-10T15:58:10.852Z,14.23
2019-04-10T16:00:39.588Z,8.00
2019-04-10T16:03:09.214Z,6.80
2019-04-10T16:05:39.850Z,8.20
2019-04-10T16:08:08.676Z,15.20
2019-04-10T16:10:41.675Z,11.80
2019-04-10T16:13:16.500Z,7.60
2019-04-10T16:15:45.321Z,7.83
2019-04-10T16:18:19.230Z,8.07
2019-04-10T16:20:50.697Z,7.87
2019-04-10T16:23:28.889Z,11.13
2019-04-10T16:25:58.411Z,9.70
2019-04-10T16:28:29.318Z,8.67
2019-04-10T16:30:59.160Z,10.40
2019-04-10T16:33:27.991Z,8.90
2019-04-10T16:35:56.946Z,9.80
2019-04-10T16:38:26.722Z,9.80
2019-04-10T16:40:56.358Z,10.87
2019-04-10T16:43:25.055Z,5.60
2019-04-10T16:45:53.672Z,8.40
2019-04-10T16:48:24.632Z,6.70
2019-04-10T16:50:53.899Z,7.63
2019-04-10T16:53:22.725Z,8.33
2019-04-10T16:55:51.445Z,8.43
2019-04-10T16:58:20.118Z,6.27
2019-04-10T17:00:49.908Z,7.70
2019-04-10T17:03:19.768Z,7.20
2019-04-10T17:05:48.540Z,10.50
2019-04-10T17:08:17.777Z,8.17
2019-04-10T17:10:46.923Z,6.60
2019-04-10T17:13:16.250Z,7.67
2019-04-10T17:15:45.039Z,7.73
2019-04-10T17:18:14.847Z,9.00
2019-04-10T17:20:44.726Z,10.73
2019-04-10T17:23:13.397Z,13.73
2019-04-10T17:25:42.347Z,12.17
2019-04-10T17:28:12.200Z,7.80
2019-04-10T17:30:42.267Z,11.83
2019-04-10T17:33:11.307Z,9.43
2019-04-10T17:35:40.047Z,7.03
2019-04-10T17:38:10.166Z,12.03
2019-04-10T17:40:48.153Z,8.90
2019-04-10T17:43:13.018Z,11.03
2019-04-10T17:45:42.824Z,11.00
2019-04-10T17:48:11.736Z,8.50
2019-04-10T17:50:41.504Z,7.20
2019-04-10T17:53:11.635Z,9.17
2019-04-10T17:55:40.269Z,7.50
2019-04-10T17:58:09.602Z,8.70
2019-04-10T18:00:40.118Z,6.97
2019-04-10T18:03:08.802Z,12.43
2019-04-10T18:05:37.480Z,8.67
2019-04-10T18:08:06.381Z,8.10
2019-04-10T18:10:46.490Z,8.83
2019-04-10T18:13:06.443Z,7.30
2019-04-10T18:15:35.828Z,9.13
2019-04-10T18:18:05.315Z,9.43
2019-04-10T18:20:35.810Z,9.23
2019-04-10T18:23:05.043Z,14.00
2019-04-10T18:25:36.372Z,9.40
2019-04-10T18:28:07.419Z,14.53
2019-04-10T18:30:37.155Z,11.53
2019-04-10T18:33:09.846Z,7.77
2019-04-10T18:35:38.763Z,7.03
2019-04-10T18:38:13.238Z,9.47
2019-04-10T18:40:53.158Z,7.13
2019-04-10T18:43:16.760Z,8.20
2019-04-10T18:45:57.474Z,10.40
2019-04-10T18:48:18.828Z,7.77
2019-04-10T18:50:47.750Z,6.30
2019-04-10T18:53:19.191Z,9.83
2019-04-10T18:55:49.803Z,8.40
2019-04-10T18:58:23.408Z,8.73
2019-04-10T19:01:14.250Z,6.70
2019-04-10T19:03:51.442Z,7.47
2019-04-10T19:06:20.540Z,13.00
2019-04-10T19:09:05.005Z,9.67
2019-04-10T19:11:29.071Z,13.13
2019-04-10T19:13:57.205Z,8.23
2019-04-10T19:16:27.904Z,13.00
2019-04-10T19:18:58.357Z,8.27
2019-04-10T19:21:27.309Z,8.80
2019-04-10T19:23:59.161Z,11.13
2019-04-10T19:26:29.560Z,13.47
2019-04-10T19:29:01.504Z,9.63
2019-04-10T19:31:33.020Z,6.80
2019-04-10T19:34:03.278Z,6.47
2019-04-10T19:36:36.227Z,9.33
2019-04-10T19:39:05.549Z,12.27
2019-04-10T19:41:39.525Z,13.00
2019-04-10T19:44:06.690Z,10.67
2019-04-10T19:46:35.582Z,11.13
2019-04-10T19:49:06.065Z,7.20
2019-04-10T19:51:38.894Z,7.60
2019-04-10T19:54:10.751Z,14.23
2019-04-10T19:56:40.508Z,8.60
2019-04-10T19:59:11.002Z,10.43
2019-04-10T20:01:42.370Z,9.30
2019-04-10T20:04:12.401Z,10.33
2019-04-10T20:06:42.722Z,8.80
2019-04-10T20:09:12.646Z,11.40
2019-04-10T20:11:49.693Z,9.63
2019-04-10T20:14:15.371Z,9.87
2019-04-10T20:16:49.388Z,11.90
2019-04-10T20:19:19.330Z,11.03
2019-04-10T20:21:50.296Z,8.13
2019-04-10T20:24:19.051Z,6.30
2019-04-10T20:26:48.070Z,7.17
2019-04-10T20:29:17.164Z,9.73
2019-04-10T20:31:47.999Z,7.77
2019-04-10T20:34:19.145Z,8.67
2019-04-10T20:36:49.419Z,10.27
2019-04-10T20:39:19.143Z,9.17
2019-04-10T20:41:53.225Z,8.07
2019-04-10T20:44:18.753Z,9.90
2019-04-10T20:46:48.988Z,8.73
2019-04-10T20:49:18.398Z,8.43
2019-04-10T20:51:48.834Z,9.20
2019-04-10T20:54:17.916Z,12.80
2019-04-10T20:56:46.593Z,7.77
2019-04-10T20:59:15.467Z,11.00
2019-04-10T21:01:44.946Z,11.53
2019-04-10T21:04:13.580Z,8.87
2019-04-10T21:06:43.606Z,6.60
2019-04-10T21:09:12.446Z,8.77
2019-04-10T21:11:41.845Z,9.00
2019-04-10T21:14:12.124Z,9.80
2019-04-10T21:16:42.079Z,6.27
2019-04-10T21:19:12.898Z,9.50
2019-04-10T21:21:41.471Z,11.23
2019-04-10T21:24:11.250Z,6.23
2019-04-10T21:26:40.865Z,6.43
2019-04-10T21:29:11.259Z,10.27
2019-04-10T21:31:41.406Z,5.67
2019-04-10T21:34:12.050Z,6.77
2019-04-10T21:36:41.381Z,8.80
2019-04-10T21:39:11.041Z,5.20
2019-04-10T21:41:41.140Z,11.93
2019-04-10T21:44:10.252Z,10.33
2019-04-10T21:46:40.944Z,4.70
2019-04-10T21:49:09.636Z,8.40
2019-04-10T21:51:38.267Z,5.77
2019-04-10T21:54:06.827Z,8.00
2019-04-10T21:56:35.418Z,6.43
2019-04-10T21:59:04.010Z,8.10
2019-04-10T22:01:32.596Z,7.17
2019-04-10T22:04:02.619Z,8.53
2019-04-10T22:09:20.887Z,7.57
2019-04-10T22:11:51.276Z,9.03
2019-04-10T22:14:20.092Z,10.53
2019-04-10T22:16:48.739Z,9.57
2019-04-10T22:19:17.288Z,9.07
2019-04-10T22:21:46.228Z,8.77
2019-04-10T22:24:15.769Z,12.43
2019-04-10T22:26:44.615Z,6.23
2019-04-10T22:29:14.095Z,9.47
2019-04-10T22:31:43.766Z,10.17
2019-04-10T22:34:13.556Z,8.80
2019-04-10T22:36:42.418Z,9.10
2019-04-10T22:39:12.601Z,9.00
2019-04-10T22:41:41.240Z,8.63
2019-04-10T22:44:09.836Z,8.33
2019-04-10T22:46:38.628Z,6.03
2019-04-10T22:49:08.258Z,8.50
2019-04-10T22:51:37.682Z,7.77
2019-04-10T22:54:08.186Z,8.23
2019-04-10T22:56:38.343Z,8.60
2019-04-10T22:59:08.040Z,8.30
2019-04-10T23:01:37.721Z,9.00
2019-04-10T23:04:08.019Z,7.20
2019-04-10T23:06:37.514Z,9.63
2019-04-10T23:09:09.131Z,11.30
2019-04-10T23:11:43.206Z,10.47
2019-04-10T23:14:07.907Z,9.47
2019-04-10T23:16:37.950Z,15.60
2019-04-10T23:19:06.688Z,7.57
2019-04-10T23:21:35.175Z,14.97
2019-04-10T23:24:05.516Z,10.03
2019-04-10T23:26:35.303Z,10.23
2019-04-10T23:29:04.232Z,11.60
2019-04-10T23:31:33.956Z,18.00
2019-04-10T23:34:02.729Z,10.30
2019-04-10T23:36:31.966Z,9.23
2019-04-10T23:39:00.900Z,10.73
2019-04-10T23:41:29.630Z,9.77
2019-04-10T23:43:58.250Z,10.47
2019-04-10T23:46:26.837Z,13.70
2019-04-10T23:48:57.204Z,10.83
2019-04-10T23:51:27.336Z,9.60
2019-04-10T23:53:56.992Z,12.83
2019-04-10T23:56:25.695Z,9.40
2019-04-10T23:58:54.289Z,8.60
